Current Weather

Basrah Intl

Basrah Intl, Iraq (ORMM)

Report from: Wednesday, September 28, 2022 8:00 AM UTC
Current time: Wednesday, September 28, 2022 9:12 AM UTC

Nearby weather
Weather history
Weather forecast

Temperature37.0°C (98.6°F)
Heat index34.0°C (93.3°F)
Dew point-4.0°C (24.8°F)
Winds 16 kts (8.2 m/s, 18.4 mph) West (280°)
Clouds Sky clear
Altimeter29.77 in.Hg (1008 mB)
Relative humidity7 %
Density altitude2,740 ft. (835 m)
Remarks Ceiling and visibility OK
No significant changes expected in the next two hours
Flight conditions Visual Meteorological Conditions
Raw dataORMM 280800Z 28016KT CAVOK 37/M04 Q1008 NOSIG
An error has occurred. This application may no longer respond until reloaded. Reload 🗙